createdAt,value
2023-02-03T00:02:23.234Z,2.58
2023-02-03T00:05:15.389Z,2.53
2023-02-03T00:08:11.799Z,2.51
2023-02-03T00:11:04.068Z,2.50
2023-02-03T00:13:56.174Z,2.50
2023-02-03T00:16:30.845Z,2.51
2023-02-03T00:19:23.138Z,2.54
2023-02-03T00:22:06.572Z,2.54
2023-02-03T00:24:58.672Z,2.55
2023-02-03T00:27:50.755Z,2.56
2023-02-03T00:30:43.152Z,2.56
2023-02-03T00:33:24.033Z,2.56
2023-02-03T00:36:16.712Z,2.57
2023-02-03T00:39:08.846Z,2.57
2023-02-03T00:42:01.018Z,2.53
2023-02-03T00:44:53.172Z,2.50
2023-02-03T00:47:45.593Z,2.50
2023-02-03T00:50:37.638Z,2.49
2023-02-03T00:53:29.695Z,2.48
2023-02-03T00:56:12.650Z,2.44
2023-02-03T00:59:04.939Z,2.42
2023-02-03T01:01:57.153Z,2.39
2023-02-03T01:04:49.519Z,2.37
2023-02-03T01:07:41.629Z,2.36
2023-02-03T01:10:33.701Z,2.31
2023-02-03T01:13:25.790Z,2.31
2023-02-03T01:16:19.426Z,2.28
2023-02-03T01:19:12.198Z,2.28
2023-02-03T01:22:04.269Z,2.29
2023-02-03T01:24:56.450Z,2.26
2023-02-03T01:27:48.541Z,2.22
2023-02-03T01:30:40.792Z,2.20
2023-02-03T01:33:32.922Z,2.17
2023-02-03T01:36:26.602Z,2.16
2023-02-03T01:39:18.936Z,2.13
2023-02-03T01:42:15.502Z,2.10
2023-02-03T01:45:11.427Z,2.10
2023-02-03T01:48:05.360Z,2.12
2023-02-03T01:50:57.573Z,2.08
2023-02-03T01:53:49.884Z,2.07
2023-02-03T01:56:25.318Z,2.09
2023-02-03T01:59:20.790Z,2.10
2023-02-03T02:02:14.260Z,2.09
2023-02-03T02:05:12.644Z,2.10
2023-02-03T02:08:06.861Z,2.07
2023-02-03T02:11:00.090Z,2.05
2023-02-03T02:13:55.182Z,2.04
2023-02-03T02:16:56.597Z,2.04
2023-02-03T02:20:26.601Z,2.02
2023-02-03T02:23:47.291Z,1.99
2023-02-03T02:26:51.867Z,1.98
2023-02-03T02:30:34.255Z,1.98
2023-02-03T02:33:38.020Z,1.96
2023-02-03T02:36:30.461Z,1.93
2023-02-03T02:39:31.204Z,1.87
2023-02-03T02:42:29.381Z,1.83
2023-02-03T02:45:27.382Z,1.79
2023-02-03T02:48:25.818Z,1.76
2023-02-03T02:51:19.235Z,1.73
2023-02-03T02:54:16.547Z,1.71
2023-02-03T02:57:11.168Z,1.69
2023-02-03T03:00:04.828Z,1.70
2023-02-03T03:02:57.830Z,1.72
2023-02-03T03:05:55.163Z,1.72
2023-02-03T03:08:52.769Z,1.72
2023-02-03T03:11:48.584Z,1.72
2023-02-03T03:14:44.820Z,1.70
2023-02-03T03:17:42.760Z,1.66
2023-02-03T03:20:40.193Z,1.64
2023-02-03T03:23:39.764Z,1.62
2023-02-03T03:26:36.800Z,1.61
2023-02-03T03:29:35.220Z,1.60
2023-02-03T03:32:30.654Z,1.60
2023-02-03T03:35:24.087Z,1.60
2023-02-03T03:38:23.334Z,1.59
2023-02-03T03:41:20.941Z,1.59
2023-02-03T03:44:17.198Z,1.57
2023-02-03T03:47:17.648Z,1.57
2023-02-03T03:50:16.661Z,1.59
2023-02-03T03:53:11.746Z,1.59
2023-02-03T03:56:06.973Z,1.55
2023-02-03T03:59:02.292Z,1.53
2023-02-03T04:01:55.050Z,1.52
2023-02-03T04:04:49.288Z,1.50
2023-02-03T04:07:43.363Z,1.46
2023-02-03T04:10:37.711Z,1.44
2023-02-03T04:13:29.853Z,1.46
2023-02-03T04:16:22.046Z,1.43
2023-02-03T04:19:14.180Z,1.40
2023-02-03T04:22:06.285Z,1.39
2023-02-03T04:24:59.021Z,1.34
2023-02-03T04:27:51.092Z,1.32
2023-02-03T04:30:43.198Z,1.33
2023-02-03T04:33:35.461Z,1.34
2023-02-03T04:36:27.872Z,1.32
2023-02-03T04:39:19.960Z,1.33
2023-02-03T04:41:54.426Z,1.33
2023-02-03T04:44:37.314Z,1.35
2023-02-03T04:47:29.211Z,1.33
2023-02-03T04:50:21.400Z,1.29
2023-02-03T04:53:15.710Z,1.29
2023-02-03T04:56:09.455Z,1.27
2023-02-03T04:59:01.640Z,1.24
2023-02-03T05:01:53.951Z,1.24
2023-02-03T05:04:46.126Z,1.21
2023-02-03T05:07:38.228Z,1.20
2023-02-03T05:10:30.353Z,1.15
2023-02-03T05:13:22.779Z,1.13
2023-02-03T05:16:15.342Z,1.12
2023-02-03T05:19:08.775Z,1.07
2023-02-03T05:22:00.997Z,1.05
2023-02-03T05:24:53.279Z,1.06
2023-02-03T05:27:27.957Z,1.06
2023-02-03T05:30:20.361Z,1.06
2023-02-03T05:32:57.831Z,1.10
2023-02-03T05:35:50.024Z,1.11
2023-02-03T05:38:42.540Z,1.13
2023-02-03T05:41:52.400Z,1.15
2023-02-03T05:44:44.596Z,1.18
2023-02-03T05:47:36.696Z,1.21
2023-02-03T05:50:33.178Z,1.24
2023-02-03T05:53:26.136Z,1.26
2023-02-03T05:56:18.467Z,1.27
2023-02-03T05:59:10.681Z,1.29
2023-02-03T06:02:02.723Z,1.30
2023-02-03T06:04:43.829Z,1.29
2023-02-03T06:07:35.967Z,1.29
2023-02-03T06:10:28.913Z,1.28
2023-02-03T06:13:21.179Z,1.25
2023-02-03T06:16:13.248Z,1.26
2023-02-03T06:18:48.016Z,1.25
2023-02-03T06:21:40.053Z,1.26
2023-02-03T06:24:32.134Z,1.29
2023-02-03T06:27:24.439Z,1.32
2023-02-03T06:30:17.329Z,1.32
2023-02-03T06:33:09.415Z,1.29
2023-02-03T06:36:01.455Z,1.30
2023-02-03T06:38:53.775Z,1.29
2023-02-03T06:41:45.896Z,1.27
2023-02-03T06:44:37.962Z,1.25
2023-02-03T06:47:15.254Z,1.21
2023-02-03T06:50:08.528Z,1.19
2023-02-03T06:52:53.253Z,1.18
2023-02-03T06:55:45.391Z,1.18
2023-02-03T06:58:37.405Z,1.16
2023-02-03T07:01:29.763Z,1.12
2023-02-03T07:04:07.508Z,1.12
2023-02-03T07:06:42.226Z,1.13
2023-02-03T07:09:26.004Z,1.10
2023-02-03T07:12:18.099Z,1.09
2023-02-03T07:14:59.095Z,1.09
2023-02-03T07:17:54.993Z,1.11
2023-02-03T07:20:45.797Z,1.10
2023-02-03T07:23:37.964Z,1.11
2023-02-03T07:26:30.199Z,1.12
2023-02-03T07:29:22.258Z,1.12
2023-02-03T07:32:03.203Z,1.16
2023-02-03T07:34:55.379Z,1.21
2023-02-03T07:37:47.623Z,1.23
2023-02-03T07:40:24.896Z,1.27
2023-02-03T07:43:17.431Z,1.31
2023-02-03T07:46:09.568Z,1.35
2023-02-03T07:49:04.380Z,1.37
2023-02-03T07:51:56.698Z,1.37
2023-02-03T07:54:49.111Z,1.37
2023-02-03T07:57:43.418Z,1.38
2023-02-03T08:00:36.087Z,1.41
2023-02-03T08:03:28.367Z,1.49
2023-02-03T08:06:20.862Z,1.52
2023-02-03T08:09:12.891Z,1.58
2023-02-03T08:12:05.471Z,1.65
2023-02-03T08:14:57.574Z,1.73
2023-02-03T08:17:50.073Z,1.80
2023-02-03T08:20:42.344Z,1.84
2023-02-03T08:23:34.547Z,1.86
2023-02-03T08:26:26.697Z,1.90
2023-02-03T08:29:01.589Z,1.98
2023-02-03T08:31:54.968Z,2.03
2023-02-03T08:34:47.508Z,2.06
2023-02-03T08:37:39.759Z,2.11
2023-02-03T08:40:32.316Z,2.17
2023-02-03T08:43:24.409Z,2.24
2023-02-03T08:46:16.631Z,2.32
2023-02-03T08:49:08.718Z,2.42
2023-02-03T08:52:00.983Z,2.51
2023-02-03T08:54:53.192Z,2.52
2023-02-03T08:57:45.841Z,2.50
2023-02-03T09:00:37.985Z,2.46
2023-02-03T09:03:30.151Z,2.43
2023-02-03T09:06:23.793Z,2.41
2023-02-03T09:09:18.090Z,2.42
2023-02-03T09:12:12.366Z,2.47
2023-02-03T09:15:04.900Z,2.51
2023-02-03T09:17:57.919Z,2.49
2023-02-03T09:20:50.193Z,2.53
2023-02-03T09:23:42.966Z,2.54
2023-02-03T09:26:35.609Z,2.51
2023-02-03T09:29:28.114Z,2.45
2023-02-03T09:32:20.276Z,2.33
2023-02-03T09:35:12.494Z,2.28
2023-02-03T09:38:04.559Z,2.22
2023-02-03T09:41:11.142Z,2.19
2023-02-03T09:44:10.120Z,2.18
2023-02-03T09:46:51.738Z,2.13
2023-02-03T09:49:48.291Z,2.11
2023-02-03T09:52:44.205Z,2.04
2023-02-03T09:55:29.031Z,2.03
2023-02-03T09:58:23.231Z,1.99
2023-02-03T10:01:20.078Z,1.94
2023-02-03T10:04:29.558Z,1.89
2023-02-03T10:07:29.707Z,1.88
2023-02-03T10:10:32.855Z,1.82
2023-02-03T10:13:33.983Z,1.81
2023-02-03T10:16:49.971Z,1.75
2023-02-03T10:19:47.886Z,1.75
2023-02-03T10:22:44.702Z,1.71
2023-02-03T10:25:41.745Z,1.69
2023-02-03T10:28:24.740Z,1.68
2023-02-03T10:31:21.376Z,1.67
2023-02-03T10:34:16.183Z,1.66
2023-02-03T10:37:20.495Z,1.69
2023-02-03T10:39:55.947Z,1.69
2023-02-03T10:43:08.189Z,1.69
2023-02-03T10:46:01.240Z,1.70
2023-02-03T10:48:53.311Z,1.72
2023-02-03T10:51:49.985Z,1.67
2023-02-03T10:54:42.163Z,1.66
2023-02-03T10:57:39.234Z,1.61
2023-02-03T11:00:34.243Z,1.54
2023-02-03T11:03:29.635Z,1.52
2023-02-03T11:06:21.724Z,1.52
2023-02-03T11:09:30.466Z,1.56
2023-02-03T11:12:22.931Z,1.60
2023-02-03T11:15:18.359Z,1.59
2023-02-03T11:17:55.968Z,1.55
2023-02-03T11:20:48.188Z,1.55
2023-02-03T11:23:46.205Z,1.55
2023-02-03T11:26:41.890Z,1.56
2023-02-03T11:29:36.036Z,1.56
2023-02-03T11:32:36.028Z,1.58
2023-02-03T11:35:29.571Z,1.57
2023-02-03T11:38:33.203Z,1.55
2023-02-03T11:41:25.363Z,1.52
2023-02-03T11:44:22.334Z,1.56
2023-02-03T11:47:18.333Z,1.60
2023-02-03T11:50:26.871Z,1.62
2023-02-03T11:53:24.149Z,1.61
2023-02-03T11:56:32.479Z,1.63
2023-02-03T11:59:53.735Z,1.62
2023-02-03T12:03:34.623Z,1.62
2023-02-03T12:07:04.591Z,1.67
2023-02-03T12:10:06.983Z,1.69
2023-02-03T12:12:53.056Z,1.69
2023-02-03T12:15:55.023Z,1.71
2023-02-03T12:18:58.530Z,1.73
2023-02-03T12:21:57.607Z,1.76
2023-02-03T12:24:59.712Z,1.76
2023-02-03T12:27:57.950Z,1.76
2023-02-03T12:30:55.135Z,1.81
2023-02-03T12:33:51.672Z,1.81
2023-02-03T12:36:27.936Z,1.83
2023-02-03T12:39:09.133Z,1.85
2023-02-03T12:42:08.063Z,1.90
2023-02-03T12:45:04.761Z,1.91
2023-02-03T12:47:59.836Z,1.92
2023-02-03T12:50:57.435Z,1.92
2023-02-03T12:53:56.872Z,1.95
2023-02-03T12:56:54.984Z,1.99
2023-02-03T12:59:54.875Z,2.02
2023-02-03T13:03:00.643Z,2.05
2023-02-03T13:06:06.269Z,2.09
2023-02-03T13:09:02.414Z,2.13
2023-02-03T13:11:57.446Z,2.17
2023-02-03T13:14:50.943Z,2.21
2023-02-03T13:17:47.961Z,2.23
2023-02-03T13:20:40.262Z,2.24
2023-02-03T13:23:33.179Z,2.23
2023-02-03T13:26:57.696Z,2.21
2023-02-03T13:30:03.757Z,2.19
2023-02-03T13:33:22.800Z,2.17
2023-02-03T13:36:35.009Z,2.16
2023-02-03T13:39:40.400Z,2.15
2023-02-03T13:42:35.063Z,2.10
2023-02-03T13:45:22.681Z,2.08
2023-02-03T13:48:20.556Z,2.09
2023-02-03T13:51:18.763Z,2.09
2023-02-03T13:54:18.641Z,2.10
2023-02-03T13:57:04.169Z,2.11
2023-02-03T13:59:46.697Z,2.12
2023-02-03T14:02:55.289Z,2.14
2023-02-03T14:05:52.225Z,2.18
2023-02-03T14:08:52.451Z,2.19
2023-02-03T14:11:45.591Z,2.21
2023-02-03T14:15:04.202Z,2.23
2023-02-03T14:18:24.448Z,2.25
2023-02-03T14:21:20.519Z,2.26
2023-02-03T14:24:14.305Z,2.26
2023-02-03T14:27:18.084Z,2.28
2023-02-03T14:30:13.460Z,2.31
2023-02-03T14:33:05.854Z,2.30
2023-02-03T14:35:40.930Z,2.30
2023-02-03T14:38:35.190Z,2.28
2023-02-03T14:41:38.262Z,2.27
2023-02-03T14:44:41.388Z,2.29
2023-02-03T14:47:49.347Z,2.30
2023-02-03T14:50:53.924Z,2.32
2023-02-03T14:54:05.373Z,2.36
2023-02-03T14:57:19.474Z,2.40
2023-02-03T15:00:31.493Z,2.42
2023-02-03T15:03:26.008Z,2.45
2023-02-03T15:06:41.313Z,2.45
2023-02-03T15:09:39.460Z,2.47
2023-02-03T15:12:23.964Z,2.49
2023-02-03T15:15:23.680Z,2.51
2023-02-03T15:18:29.774Z,2.54
2023-02-03T15:21:22.600Z,2.57
2023-02-03T15:24:21.431Z,2.59
2023-02-03T15:27:24.619Z,2.57
2023-02-03T15:30:23.867Z,2.56
2023-02-03T15:33:21.215Z,2.55
2023-02-03T15:36:20.226Z,2.57
2023-02-03T15:39:23.140Z,2.59
2023-02-03T15:42:22.954Z,2.62
2023-02-03T15:45:27.893Z,2.65
2023-02-03T15:48:27.680Z,2.70
2023-02-03T15:51:24.465Z,2.73
2023-02-03T15:54:23.395Z,2.76
2023-02-03T15:57:21.693Z,2.80
2023-02-03T16:00:30.206Z,2.85
2023-02-03T16:03:21.752Z,2.90
2023-02-03T16:06:17.059Z,2.94
2023-02-03T16:09:26.539Z,3.00
2023-02-03T16:12:24.455Z,3.05
2023-02-03T16:15:26.277Z,3.10
2023-02-03T16:18:19.675Z,3.14
2023-02-03T16:21:28.778Z,3.17
2023-02-03T16:24:40.225Z,3.18
2023-02-03T16:27:35.974Z,3.22
2023-02-03T16:30:46.227Z,3.24
2023-02-03T16:33:38.455Z,3.28
2023-02-03T16:36:48.338Z,3.31
2023-02-03T16:39:41.015Z,3.35
2023-02-03T16:42:58.804Z,3.37
2023-02-03T16:46:13.840Z,3.39
2023-02-03T16:49:13.914Z,3.43
2023-02-03T16:52:08.462Z,3.47
2023-02-03T16:55:00.702Z,3.51
2023-02-03T16:57:52.992Z,3.54
2023-02-03T17:00:49.358Z,3.56
2023-02-03T17:03:41.448Z,3.57
2023-02-03T17:06:34.696Z,3.58
2023-02-03T17:09:26.768Z,3.60
2023-02-03T17:12:15.629Z,3.62
2023-02-03T17:15:08.744Z,3.63
2023-02-03T17:18:02.297Z,3.65
2023-02-03T17:20:58.135Z,3.66
2023-02-03T17:23:42.177Z,3.68
2023-02-03T17:26:35.134Z,3.68
2023-02-03T17:29:27.193Z,3.69
2023-02-03T17:32:04.665Z,3.69
2023-02-03T17:34:56.978Z,3.71
2023-02-03T17:37:49.158Z,3.72
2023-02-03T17:53:27.937Z,3.79
2023-02-03T17:56:23.236Z,3.80
2023-02-03T17:59:16.259Z,3.81
2023-02-03T18:01:59.924Z,3.82
2023-02-03T18:04:52.537Z,3.85
2023-02-03T18:07:44.978Z,3.85
2023-02-03T18:10:37.390Z,3.85
2023-02-03T18:13:32.898Z,3.85
2023-02-03T18:16:28.927Z,3.85
2023-02-03T18:19:19.478Z,3.86
2023-02-03T18:22:11.623Z,3.87
2023-02-03T18:25:03.798Z,3.86
2023-02-03T18:27:55.892Z,3.85
2023-02-03T18:30:48.374Z,3.86
2023-02-03T18:33:41.042Z,3.87
2023-02-03T18:36:33.602Z,3.87
2023-02-03T18:39:25.699Z,3.88
2023-02-03T18:42:19.063Z,3.88
2023-02-03T18:45:13.102Z,3.89
2023-02-03T18:48:05.442Z,3.88
2023-02-03T18:50:48.822Z,3.89
2023-02-03T18:53:42.086Z,3.90
2023-02-03T18:56:36.319Z,3.90
2023-02-03T18:59:28.816Z,3.90
2023-02-03T19:02:21.858Z,3.91
2023-02-03T19:05:14.086Z,3.91
2023-02-03T19:08:06.235Z,3.91
2023-02-03T19:10:58.519Z,3.91
2023-02-03T19:13:50.793Z,3.87
2023-02-03T19:16:43.865Z,3.81
2023-02-03T19:19:36.149Z,3.76
2023-02-03T19:22:18.578Z,3.71
2023-02-03T19:25:11.244Z,3.70
2023-02-03T19:28:04.128Z,3.67
2023-02-03T19:31:02.904Z,3.63
2023-02-03T19:34:00.727Z,3.61
2023-02-03T19:36:52.954Z,3.60
2023-02-03T19:39:47.992Z,3.57
2023-02-03T19:42:29.339Z,3.52
2023-02-03T19:45:21.827Z,3.46
2023-02-03T19:48:14.568Z,3.41
2023-02-03T19:51:08.726Z,3.39
2023-02-03T19:53:58.797Z,3.36
2023-02-03T19:56:51.340Z,3.34
2023-02-03T19:59:44.242Z,3.32
2023-02-03T20:02:20.328Z,3.31
2023-02-03T20:05:13.270Z,3.30
2023-02-03T20:08:06.326Z,3.30
2023-02-03T20:10:42.130Z,3.30
2023-02-03T20:13:17.135Z,3.29
2023-02-03T20:16:09.802Z,3.30
2023-02-03T20:18:56.573Z,3.29
2023-02-03T20:21:40.107Z,3.29
2023-02-03T20:24:22.918Z,3.30
2023-02-03T20:27:15.601Z,3.31
2023-02-03T20:30:08.959Z,3.31
2023-02-03T20:33:01.338Z,3.33
2023-02-03T20:35:53.524Z,3.34
2023-02-03T20:38:45.683Z,3.36
2023-02-03T20:41:29.407Z,3.38
2023-02-03T20:44:21.536Z,3.39
2023-02-03T20:46:56.673Z,3.41
2023-02-03T20:49:49.528Z,3.43
2023-02-03T20:52:42.054Z,3.44
2023-02-03T20:55:36.404Z,3.45
2023-02-03T20:58:30.937Z,3.47
2023-02-03T21:01:24.532Z,3.48
2023-02-03T21:04:36.169Z,3.48
2023-02-03T21:07:31.347Z,3.50
2023-02-03T21:10:25.616Z,3.51
2023-02-03T21:13:23.301Z,3.52
2023-02-03T21:16:21.430Z,3.55
2023-02-03T21:19:18.211Z,3.56
2023-02-03T21:22:20.996Z,3.57
2023-02-03T21:24:57.974Z,3.58
2023-02-03T21:27:50.256Z,3.59
2023-02-03T21:30:42.611Z,3.61
2023-02-03T21:33:36.273Z,3.62
2023-02-03T21:36:29.942Z,3.64
2023-02-03T21:39:29.678Z,3.65
2023-02-03T21:42:42.060Z,3.67
2023-02-03T21:45:43.930Z,3.69
2023-02-03T21:48:40.046Z,3.70
2023-02-03T21:51:23.193Z,3.71
2023-02-03T21:54:23.315Z,3.73
2023-02-03T21:57:01.752Z,3.74
2023-02-03T21:59:53.854Z,3.74
2023-02-03T22:03:00.273Z,3.75
2023-02-03T22:05:53.013Z,3.77
2023-02-03T22:08:47.056Z,3.78
2023-02-03T22:11:39.172Z,3.79
2023-02-03T22:14:14.440Z,3.79
2023-02-03T22:16:49.618Z,3.79
2023-02-03T22:19:41.872Z,3.80
2023-02-03T22:22:34.220Z,3.80
2023-02-03T22:25:26.644Z,3.81
2023-02-03T22:28:18.872Z,3.82
2023-02-03T22:31:12.931Z,3.82
2023-02-03T22:34:05.173Z,3.84
2023-02-03T22:36:57.328Z,3.86
2023-02-03T22:39:49.558Z,3.87
2023-02-03T22:42:41.754Z,3.88
2023-02-03T22:45:17.018Z,3.89
2023-02-03T22:47:51.782Z,3.89
2023-02-03T22:50:44.040Z,3.91
2023-02-03T22:53:36.345Z,3.91
2023-02-03T22:56:28.516Z,3.90
2023-02-03T22:59:20.602Z,3.91
2023-02-03T23:01:55.323Z,3.92
2023-02-03T23:04:47.468Z,3.93
2023-02-03T23:07:40.001Z,3.94
2023-02-03T23:10:32.720Z,3.95
2023-02-03T23:13:25.264Z,3.95
2023-02-03T23:16:17.428Z,3.96
2023-02-03T23:19:09.559Z,3.95
2023-02-03T23:22:01.677Z,3.96
2023-02-03T23:24:42.573Z,3.96
2023-02-03T23:27:34.682Z,3.95
2023-02-03T23:30:26.977Z,3.94
2023-02-03T23:33:08.067Z,3.95
2023-02-03T23:36:00.116Z,3.95
2023-02-03T23:38:52.232Z,3.94
2023-02-03T23:41:44.554Z,3.95
2023-02-03T23:44:19.283Z,3.94
2023-02-03T23:47:11.694Z,3.95
2023-02-03T23:50:03.885Z,3.95
2023-02-03T23:52:56.004Z,3.96
2023-02-03T23:55:48.239Z,3.96
2023-02-03T23:58:40.407Z,3.96
